createdAt,value
2018-11-22T00:01:07.818Z,24.43
2018-11-22T00:03:37.065Z,23.50
2018-11-22T00:06:06.352Z,22.15
2018-11-22T00:08:35.592Z,22.15
2018-11-22T00:11:05.292Z,23.57
2018-11-22T00:13:34.540Z,21.77
2018-11-22T00:16:03.836Z,25.27
2018-11-22T00:18:33.213Z,24.67
2018-11-22T00:21:02.483Z,22.82
2018-11-22T00:23:31.732Z,25.48
2018-11-22T00:26:01.008Z,21.35
2018-11-22T00:28:30.262Z,22.05
2018-11-22T00:30:59.561Z,22.58
2018-11-22T00:33:28.814Z,25.62
2018-11-22T00:35:58.091Z,21.75
2018-11-22T00:38:27.349Z,23.47
2018-11-22T00:40:56.655Z,23.55
2018-11-22T00:43:25.906Z,21.17
2018-11-22T00:45:55.178Z,22.58
2018-11-22T00:48:24.443Z,21.60
2018-11-22T00:50:53.713Z,21.05
2018-11-22T00:53:22.956Z,22.17
2018-11-22T00:55:52.235Z,23.70
2018-11-22T00:58:21.489Z,21.70
2018-11-22T01:00:50.766Z,25.32
2018-11-22T01:03:20.004Z,26.90
2018-11-22T01:05:49.276Z,21.33
2018-11-22T01:08:18.584Z,26.60
2018-11-22T01:10:47.869Z,26.45
2018-11-22T01:13:17.129Z,21.93
2018-11-22T01:15:46.396Z,20.55
2018-11-22T01:18:15.668Z,21.00
2018-11-22T01:20:44.969Z,18.57
2018-11-22T01:23:14.230Z,22.17
2018-11-22T01:25:43.520Z,21.80
2018-11-22T01:28:12.771Z,22.30
2018-11-22T01:30:42.066Z,20.90
2018-11-22T01:33:11.307Z,20.40
2018-11-22T01:35:40.554Z,23.18
2018-11-22T01:38:09.839Z,23.92
2018-11-22T01:40:39.086Z,24.82
2018-11-22T01:43:08.379Z,20.97
2018-11-22T01:45:37.665Z,22.73
2018-11-22T01:48:06.985Z,27.55
2018-11-22T01:50:36.250Z,26.15
2018-11-22T01:53:05.944Z,28.07
2018-11-22T01:55:35.204Z,22.85
2018-11-22T01:58:04.501Z,24.95
2018-11-22T02:00:33.762Z,31.42
2018-11-22T02:03:03.065Z,25.48
2018-11-22T02:05:32.310Z,25.30
2018-11-22T02:08:01.606Z,26.00
2018-11-22T02:10:30.857Z,21.25
2018-11-22T02:13:00.161Z,20.05
2018-11-22T02:15:29.846Z,27.93
2018-11-22T02:17:59.140Z,23.42
2018-11-22T02:20:28.392Z,25.08
2018-11-22T02:22:57.694Z,26.37
2018-11-22T02:25:28.349Z,25.15
2018-11-22T02:27:57.650Z,27.95
2018-11-22T02:30:27.905Z,25.88
2018-11-22T02:32:58.533Z,25.65
2018-11-22T02:35:27.961Z,24.18
2018-11-22T02:37:57.252Z,25.15
2018-11-22T02:40:26.743Z,32.85
2018-11-22T02:42:56.424Z,25.90
2018-11-22T02:45:27.201Z,27.48
2018-11-22T02:47:56.498Z,24.67
2018-11-22T02:50:26.026Z,25.75
2018-11-22T02:52:56.029Z,32.10
2018-11-22T02:55:25.328Z,33.80
2018-11-22T02:57:54.702Z,28.65
2018-11-22T03:00:34.307Z,26.50
2018-11-22T03:03:03.685Z,27.02
2018-11-22T03:05:33.026Z,26.65
2018-11-22T03:08:02.279Z,24.05
2018-11-22T03:10:31.580Z,28.00
2018-11-22T03:13:00.848Z,28.12
2018-11-22T03:15:30.155Z,28.87
2018-11-22T03:17:59.420Z,26.05
2018-11-22T03:20:28.717Z,27.17
2018-11-22T03:22:57.971Z,25.97
2018-11-22T03:25:27.292Z,35.25
2018-11-22T03:27:56.563Z,32.42
2018-11-22T03:30:26.037Z,26.10
2018-11-22T03:32:55.293Z,27.07
2018-11-22T03:35:25.830Z,28.57
2018-11-22T03:37:55.097Z,36.08
2018-11-22T03:40:25.450Z,30.62
2018-11-22T03:42:54.699Z,28.15
2018-11-22T03:45:24.774Z,31.10
2018-11-22T03:47:54.062Z,27.98
2018-11-22T03:50:24.828Z,31.42
2018-11-22T03:52:54.807Z,30.32
2018-11-22T03:55:24.119Z,28.47
2018-11-22T03:57:53.803Z,29.10
2018-11-22T04:00:29.833Z,31.97
2018-11-22T04:02:59.106Z,30.15
2018-11-22T04:05:29.057Z,30.55
2018-11-22T04:07:58.401Z,34.00
2018-11-22T04:10:28.981Z,33.10
2018-11-22T04:12:58.251Z,30.25
2018-11-22T04:15:27.752Z,34.53
2018-11-22T04:17:57.606Z,35.45
2018-11-22T04:20:28.273Z,33.45
2018-11-22T04:22:57.530Z,35.00
2018-11-22T04:25:27.065Z,35.00
2018-11-22T04:27:56.641Z,34.78
2018-11-22T04:30:33.058Z,30.72
2018-11-22T04:33:02.312Z,34.03
2018-11-22T04:35:32.067Z,29.63
2018-11-22T04:38:01.306Z,31.20
2018-11-22T04:40:31.684Z,34.88
2018-11-22T04:43:00.988Z,30.40
2018-11-22T04:45:30.297Z,30.43
2018-11-22T04:48:01.356Z,29.98
2018-11-22T04:50:32.861Z,36.05
2018-11-22T04:53:02.110Z,34.13
2018-11-22T04:55:31.391Z,37.80
2018-11-22T04:58:00.646Z,36.93
2018-11-22T05:00:29.924Z,37.40
2018-11-22T05:02:59.183Z,38.88
2018-11-22T05:05:28.893Z,36.68
2018-11-22T05:07:58.256Z,37.70
2018-11-22T05:10:28.710Z,39.88
2018-11-22T05:12:58.035Z,31.87
2018-11-22T05:15:29.035Z,33.55
2018-11-22T05:17:58.302Z,36.77
2018-11-22T05:20:27.549Z,36.48
2018-11-22T05:22:56.854Z,43.52
2018-11-22T05:25:26.106Z,37.65
2018-11-22T05:27:55.391Z,38.60
2018-11-22T05:30:28.925Z,38.13
2018-11-22T05:32:58.202Z,39.60
2018-11-22T05:35:27.477Z,35.15
2018-11-22T05:37:56.765Z,37.33
2018-11-22T05:40:27.261Z,38.95
2018-11-22T05:42:56.838Z,31.33
2018-11-22T05:45:27.633Z,37.30
2018-11-22T05:47:57.212Z,37.55
2018-11-22T05:50:30.449Z,40.43
2018-11-22T05:53:01.371Z,40.03
2018-11-22T05:55:30.622Z,40.50
2018-11-22T05:57:59.896Z,39.70
2018-11-22T06:00:30.378Z,39.70
2018-11-22T06:03:00.826Z,35.68
2018-11-22T06:05:31.443Z,34.18
2018-11-22T06:08:00.723Z,35.38
2018-11-22T06:10:31.593Z,35.35
2018-11-22T06:13:01.950Z,34.50
2018-11-22T06:15:31.211Z,39.27
2018-11-22T06:18:01.070Z,39.70
2018-11-22T06:20:31.342Z,33.73
2018-11-22T06:23:00.606Z,33.67
2018-11-22T06:25:29.922Z,32.25
2018-11-22T06:27:59.560Z,33.13
2018-11-22T06:30:30.161Z,34.08
2018-11-22T06:33:00.593Z,32.08
2018-11-22T06:35:30.584Z,31.42
2018-11-22T06:38:00.026Z,35.00
2018-11-22T06:40:29.269Z,34.33
2018-11-22T06:42:59.419Z,33.78
2018-11-22T06:45:29.867Z,36.08
2018-11-22T06:47:59.358Z,32.25
2018-11-22T06:50:28.914Z,33.80
2018-11-22T06:52:58.181Z,36.45
2018-11-22T06:55:28.930Z,29.15
2018-11-22T06:57:58.229Z,35.00
2018-11-22T07:00:28.367Z,38.78
2018-11-22T07:02:59.458Z,36.77
2018-11-22T07:05:28.779Z,32.63
2018-11-22T07:07:58.015Z,32.65
2018-11-22T07:10:27.340Z,39.67
2018-11-22T07:12:57.307Z,36.10
2018-11-22T07:15:26.627Z,32.95
2018-11-22T07:17:56.131Z,38.42
2018-11-22T07:20:26.547Z,36.15
2018-11-22T07:22:57.413Z,33.53
2018-11-22T07:25:27.059Z,35.10
2018-11-22T07:27:56.353Z,43.55
2018-11-22T07:30:30.026Z,39.00
2018-11-22T07:32:59.406Z,34.23
2018-11-22T07:35:30.231Z,38.65
2018-11-22T12:17:41.253Z,17.07
2018-11-22T12:20:11.712Z,17.55
2018-11-22T12:22:42.318Z,21.68
2018-11-22T12:25:13.505Z,22.05
2018-11-22T12:27:43.724Z,20.12
2018-11-22T12:30:15.651Z,18.62
2018-11-22T12:32:48.474Z,21.73
2018-11-22T12:35:24.952Z,19.00
2018-11-22T12:37:59.402Z,19.50
2018-11-22T12:40:29.031Z,18.50
2018-11-22T12:42:58.621Z,20.92
2018-11-22T12:45:28.511Z,23.10
2018-11-22T12:47:58.046Z,22.73
2018-11-22T12:50:27.469Z,21.10
2018-11-22T12:52:56.961Z,18.25
2018-11-22T12:55:26.349Z,16.77
2018-11-22T12:57:55.902Z,18.30
2018-11-22T13:00:25.501Z,19.27
2018-11-22T13:02:54.632Z,20.27
2018-11-22T13:05:23.997Z,19.40
2018-11-22T13:07:53.384Z,17.75
2018-11-22T13:10:22.832Z,21.52
2018-11-22T13:12:52.214Z,19.67
2018-11-22T13:15:22.250Z,20.95
2018-11-22T13:17:51.692Z,20.55
2018-11-22T13:20:22.018Z,20.85
2018-11-22T13:22:51.392Z,24.02
2018-11-22T13:25:22.149Z,19.95
2018-11-22T13:27:51.539Z,19.98
2018-11-22T13:30:24.229Z,20.97
2018-11-22T13:32:54.204Z,17.73
2018-11-22T13:35:23.662Z,19.07
2018-11-22T13:37:54.189Z,20.60
2018-11-22T13:40:23.613Z,20.12
2018-11-22T13:42:53.626Z,18.07
2018-11-22T13:45:24.469Z,20.65
2018-11-22T13:47:54.676Z,19.42
2018-11-22T13:50:26.364Z,17.75
2018-11-22T13:52:57.553Z,19.70
2018-11-22T13:55:27.236Z,17.75
2018-11-22T13:57:56.960Z,18.98
2018-11-22T14:00:27.895Z,18.62
2018-11-22T14:02:59.150Z,17.17
2018-11-22T14:05:29.345Z,18.75
2018-11-22T14:07:58.916Z,19.73
2018-11-22T14:10:28.857Z,19.37
2018-11-22T14:12:58.606Z,23.05
2018-11-22T14:15:29.651Z,17.30
2018-11-22T14:18:00.676Z,20.20
2018-11-22T14:20:31.675Z,20.43
2018-11-22T14:23:01.081Z,19.70
2018-11-22T14:25:30.781Z,27.35
2018-11-22T14:28:00.251Z,18.82
2018-11-22T14:30:31.281Z,22.45
2018-11-22T14:33:00.699Z,22.85
2018-11-22T14:35:30.062Z,23.15
2018-11-22T14:37:59.438Z,20.80
2018-11-22T14:40:30.891Z,21.30
2018-11-22T14:43:00.349Z,23.38
2018-11-22T14:45:30.502Z,25.02
2018-11-22T14:48:01.226Z,33.70
2018-11-22T14:50:33.616Z,23.98
2018-11-22T14:53:10.688Z,23.62
2018-11-22T14:55:40.187Z,22.75
2018-11-22T14:58:10.013Z,23.35
2018-11-22T15:00:39.418Z,17.17
2018-11-22T15:03:08.899Z,17.65
2018-11-22T15:05:38.284Z,23.00
2018-11-22T15:08:07.652Z,19.95
2018-11-22T15:10:37.091Z,22.45
2018-11-22T15:13:06.807Z,18.20
2018-11-22T15:15:36.254Z,19.82
2018-11-22T15:18:05.718Z,18.77
2018-11-22T15:20:35.123Z,18.17
2018-11-22T15:23:04.513Z,16.25
2018-11-22T15:25:34.010Z,20.35
2018-11-22T15:28:03.385Z,19.20
2018-11-22T15:30:32.831Z,21.60
2018-11-22T15:33:02.210Z,21.23
2018-11-22T15:35:31.740Z,20.72
2018-11-22T15:38:01.150Z,24.92
2018-11-22T15:40:30.587Z,19.50
2018-11-22T15:43:01.380Z,24.15
2018-11-22T15:45:34.911Z,20.77
2018-11-22T15:48:00.621Z,18.90
2018-11-22T15:50:30.324Z,22.17
2018-11-22T15:52:59.702Z,21.37
2018-11-22T15:55:29.172Z,25.32
2018-11-22T15:57:59.865Z,20.10
2018-11-22T16:00:30.807Z,26.82
2018-11-22T16:03:00.598Z,27.67
2018-11-22T16:05:30.637Z,28.80
2018-11-22T16:08:00.050Z,26.82
2018-11-22T16:10:31.985Z,27.62
2018-11-22T16:13:03.424Z,30.37
2018-11-22T16:15:35.486Z,32.88
2018-11-22T16:18:04.866Z,40.63
2018-11-22T16:20:34.276Z,33.08
2018-11-22T16:23:03.697Z,31.37
2018-11-22T16:25:33.243Z,32.23
2018-11-22T16:28:02.590Z,31.12
2018-11-22T16:30:32.973Z,29.60
2018-11-22T16:33:02.770Z,26.17
2018-11-22T16:35:33.621Z,28.12
2018-11-22T16:38:02.379Z,29.82
2018-11-22T16:40:31.802Z,36.35
2018-11-22T16:43:02.402Z,27.10
2018-11-22T16:45:33.080Z,29.63
2018-11-22T16:48:03.893Z,28.77
2018-11-22T16:50:34.253Z,25.90
2018-11-22T16:53:03.923Z,30.30
2018-11-22T16:55:33.308Z,33.95
2018-11-22T16:58:03.209Z,26.07
2018-11-22T17:00:35.645Z,37.73
2018-11-22T17:03:07.553Z,32.10
2018-11-22T17:05:37.225Z,28.60
2018-11-22T17:08:07.430Z,34.03
2018-11-22T17:10:37.121Z,29.85
2018-11-22T17:13:06.719Z,33.08
2018-11-22T17:15:37.562Z,34.13
2018-11-22T17:18:07.808Z,32.85
2018-11-22T17:20:37.172Z,29.27
2018-11-22T17:23:06.950Z,35.08
2018-11-22T17:25:37.025Z,43.58
2018-11-22T17:28:07.619Z,38.67
2018-11-22T17:30:41.378Z,28.65
2018-11-22T17:33:10.813Z,33.85
2018-11-22T17:35:40.980Z,32.48
2018-11-22T17:38:11.321Z,32.00
2018-11-22T17:40:43.192Z,37.90
2018-11-22T17:43:13.151Z,42.75
2018-11-22T17:45:43.909Z,49.42
2018-11-22T17:48:13.306Z,45.17
2018-11-22T17:50:43.942Z,39.38
2018-11-22T17:53:13.781Z,31.17
2018-11-22T17:55:43.359Z,34.00
2018-11-22T17:58:13.196Z,32.35
2018-11-22T18:00:47.870Z,44.80
2018-11-22T18:03:17.268Z,32.58
2018-11-22T18:05:46.765Z,31.00
2018-11-22T18:08:16.444Z,32.83
2018-11-22T18:10:45.818Z,32.70
2018-11-22T18:13:15.202Z,33.05
2018-11-22T18:15:49.773Z,38.15
2018-11-22T18:18:19.293Z,32.15
2018-11-22T18:20:48.667Z,39.90
2018-11-22T18:23:18.068Z,47.95
2018-11-22T18:25:49.061Z,43.00
2018-11-22T18:28:16.818Z,38.83
2018-11-22T18:30:46.213Z,34.70
2018-11-22T18:33:15.573Z,34.70
2018-11-22T18:35:44.987Z,36.00
2018-11-22T18:38:14.305Z,38.00
2018-11-22T18:40:44.291Z,39.05
2018-11-22T18:43:13.658Z,33.10
2018-11-22T18:45:45.038Z,36.85
2018-11-22T18:48:15.061Z,36.53
2018-11-22T18:50:44.847Z,39.08
2018-11-22T18:53:14.194Z,38.38
2018-11-22T18:55:43.576Z,33.88
2018-11-22T18:58:12.926Z,34.70
2018-11-22T19:00:43.803Z,30.80
2018-11-22T19:03:14.724Z,34.23
2018-11-22T19:05:44.170Z,36.13
2018-11-22T19:08:13.563Z,28.30
2018-11-22T19:10:43.749Z,29.20
2018-11-22T19:13:13.592Z,34.83
2018-11-22T19:15:44.607Z,30.40
2018-11-22T19:18:14.369Z,28.57
2018-11-22T19:20:44.654Z,32.50
2018-11-22T19:23:14.834Z,29.90
2018-11-22T19:25:44.276Z,37.78
2018-11-22T19:28:13.636Z,30.35
2018-11-22T19:30:44.567Z,31.82
2018-11-22T19:33:15.521Z,35.28
2018-11-22T19:35:46.358Z,42.03
2018-11-22T19:38:15.736Z,36.00
2018-11-22T19:40:45.142Z,33.35
2018-11-22T19:43:14.522Z,34.58
2018-11-22T19:45:45.600Z,33.00
2018-11-22T19:48:14.992Z,33.02
2018-11-22T19:50:44.373Z,31.02
2018-11-22T19:53:14.772Z,33.20
2018-11-22T19:55:44.352Z,31.12
2018-11-22T19:58:14.928Z,28.45
2018-11-22T20:00:44.298Z,28.67
2018-11-22T20:03:13.677Z,29.92
2018-11-22T20:05:43.491Z,30.02
2018-11-22T20:08:16.543Z,28.52
2018-11-22T20:10:46.475Z,28.35
2018-11-22T20:13:15.856Z,27.02
2018-11-22T20:15:45.228Z,29.37
2018-11-22T20:18:14.822Z,31.07
2018-11-22T20:20:49.550Z,30.43
2018-11-22T20:23:13.634Z,28.02
2018-11-22T20:25:43.009Z,27.75
2018-11-22T20:28:12.426Z,31.12
2018-11-22T20:30:43.412Z,31.07
2018-11-22T20:33:12.801Z,30.32
2018-11-22T20:35:42.193Z,28.02
2018-11-22T20:38:11.837Z,29.05
2018-11-22T20:40:41.184Z,33.30
2018-11-22T20:43:10.572Z,28.05
2018-11-22T20:45:41.009Z,29.55
2018-11-22T20:48:09.427Z,29.35
2018-11-22T20:50:38.924Z,35.28
2018-11-22T20:53:08.392Z,36.88
2018-11-22T20:55:39.259Z,35.75
2018-11-22T20:58:09.447Z,36.83
2018-11-22T21:00:40.656Z,32.88
2018-11-22T21:03:10.068Z,34.23
2018-11-22T21:05:39.465Z,40.43
2018-11-22T21:08:08.889Z,31.68
2018-11-22T21:10:38.740Z,32.20
2018-11-22T21:13:08.311Z,38.95
2018-11-22T21:15:38.212Z,34.92
2018-11-22T21:18:08.605Z,35.00
2018-11-22T21:20:39.620Z,30.68
2018-11-22T21:23:09.033Z,30.90
2018-11-22T21:25:38.471Z,31.33
2018-11-22T21:28:08.135Z,45.98
2018-11-22T21:30:38.768Z,63.95
2018-11-22T21:33:08.489Z,63.45
2018-11-22T21:35:38.457Z,51.73
2018-11-22T21:38:08.445Z,34.85
2018-11-22T21:40:37.821Z,30.37
2018-11-22T21:43:07.197Z,26.30
2018-11-22T21:45:36.577Z,29.75
2018-11-22T21:48:05.991Z,31.33
2018-11-22T21:50:35.380Z,39.75
2018-11-22T21:53:04.695Z,37.20
2018-11-22T21:55:34.107Z,43.63
2018-11-22T21:58:03.796Z,36.83
2018-11-22T22:00:36.586Z,31.82
2018-11-22T22:03:07.536Z,35.13
2018-11-22T22:05:37.509Z,31.77
2018-11-22T22:08:07.525Z,43.75
2018-11-22T22:10:36.992Z,42.08
2018-11-22T22:13:06.509Z,39.40
2018-11-22T22:15:36.700Z,39.60
2018-11-22T22:18:07.194Z,35.80
2018-11-22T22:20:37.046Z,35.58
2018-11-22T22:23:07.117Z,39.48
2018-11-22T22:25:35.973Z,34.50
2018-11-22T22:28:05.390Z,29.75
2018-11-22T22:30:35.322Z,36.50
2018-11-22T22:33:05.953Z,37.05
2018-11-22T22:35:35.454Z,35.00
2018-11-22T22:38:05.038Z,39.40
2018-11-22T22:40:34.611Z,34.48
2018-11-22T22:43:04.071Z,33.92
2018-11-22T22:45:34.085Z,36.30
2018-11-22T22:48:03.516Z,37.65
2018-11-22T22:50:33.327Z,84.95
2018-11-22T22:53:02.746Z,41.80
2018-11-22T22:55:32.359Z,45.10
2018-11-22T22:58:01.942Z,45.90
2018-11-22T23:00:36.684Z,35.48
2018-11-22T23:03:07.144Z,37.15
2018-11-22T23:05:36.920Z,69.03
2018-11-22T23:08:06.296Z,38.02
2018-11-22T23:10:35.706Z,40.88
2018-11-22T23:13:05.618Z,62.93
2018-11-22T23:15:35.059Z,49.40
2018-11-22T23:18:04.480Z,64.15
2018-11-22T23:20:35.233Z,49.10
2018-11-22T23:23:04.743Z,37.83
2018-11-22T23:25:34.396Z,35.00
2018-11-22T23:28:04.261Z,32.13
2018-11-22T23:30:35.406Z,29.90
2018-11-22T23:33:07.332Z,30.23
2018-11-22T23:35:37.288Z,33.20
2018-11-22T23:38:07.355Z,27.62
2018-11-22T23:40:37.090Z,27.65
2018-11-22T23:43:06.778Z,30.95
2018-11-22T23:45:36.879Z,31.20
2018-11-22T23:48:06.753Z,33.20
2018-11-22T23:50:36.451Z,32.63
2018-11-22T23:53:06.137Z,41.60
2018-11-22T23:55:35.664Z,53.23
2018-11-22T23:58:05.185Z,43.15
